sensor_id;sensor_type;location;lat;lon;timestamp;temperature;humidity
12421;DHT22;6275;43.688;1.408;2022-10-16T00:01:29;16.70;99.90
12421;DHT22;6275;43.688;1.408;2022-10-16T00:03:58;16.70;99.90
12421;DHT22;6275;43.688;1.408;2022-10-16T00:06:27;16.80;99.90
12421;DHT22;6275;43.688;1.408;2022-10-16T00:08:54;16.80;99.90
12421;DHT22;6275;43.688;1.408;2022-10-16T00:11:24;16.80;99.90
12421;DHT22;6275;43.688;1.408;2022-10-16T00:13:54;16.70;99.90
12421;DHT22;6275;43.688;1.408;2022-10-16T00:16:21;16.70;99.90
12421;DHT22;6275;43.688;1.408;2022-10-16T00:18:48;16.80;99.90
12421;DHT22;6275;43.688;1.408;2022-10-16T00:21:20;16.80;99.90
12421;DHT22;6275;43.688;1.408;2022-10-16T00:23:50;16.80;99.90
12421;DHT22;6275;43.688;1.408;2022-10-16T00:26:18;16.70;99.90
12421;DHT22;6275;43.688;1.408;2022-10-16T00:28:47;16.80;99.90
12421;DHT22;6275;43.688;1.408;2022-10-16T00:31:14;16.80;99.90
12421;DHT22;6275;43.688;1.408;2022-10-16T00:33:42;16.80;99.90
12421;DHT22;6275;43.688;1.408;2022-10-16T00:36:12;16.80;99.90
12421;DHT22;6275;43.688;1.408;2022-10-16T00:38:40;16.80;99.90
12421;DHT22;6275;43.688;1.408;2022-10-16T00:41:10;16.70;99.90
12421;DHT22;6275;43.688;1.408;2022-10-16T00:46:31;16.50;99.90
12421;DHT22;6275;43.688;1.408;2022-10-16T00:49:08;16.50;99.90
12421;DHT22;6275;43.688;1.408;2022-10-16T00:54:16;16.70;99.90
12421;DHT22;6275;43.688;1.408;2022-10-16T00:56:45;16.80;99.90
12421;DHT22;6275;43.688;1.408;2022-10-16T00:59:20;16.70;99.90
12421;DHT22;6275;43.688;1.408;2022-10-16T01:01:49;16.70;99.90
12421;DHT22;6275;43.688;1.408;2022-10-16T01:04:16;16.70;99.90
12421;DHT22;6275;43.688;1.408;2022-10-16T01:09:24;16.60;99.90
12421;DHT22;6275;43.688;1.408;2022-10-16T01:20:31;16.30;99.90
12421;DHT22;6275;43.688;1.408;2022-10-16T01:29:03;16.40;99.90
12421;DHT22;6275;43.688;1.408;2022-10-16T01:31:35;16.40;99.90
12421;DHT22;6275;43.688;1.408;2022-10-16T01:34:11;16.40;99.90
12421;DHT22;6275;43.688;1.408;2022-10-16T01:36:51;16.40;99.90
12421;DHT22;6275;43.688;1.408;2022-10-16T01:39:22;16.50;99.90
12421;DHT22;6275;43.688;1.408;2022-10-16T01:41:58;16.50;99.90
12421;DHT22;6275;43.688;1.408;2022-10-16T01:44:31;16.70;99.90
12421;DHT22;6275;43.688;1.408;2022-10-16T01:46:59;17.00;99.90
12421;DHT22;6275;43.688;1.408;2022-10-16T01:49:31;17.20;99.90
12421;DHT22;6275;43.688;1.408;2022-10-16T01:52:02;17.40;99.90
12421;DHT22;6275;43.688;1.408;2022-10-16T01:54:32;17.30;99.90
12421;DHT22;6275;43.688;1.408;2022-10-16T01:57:01;17.20;99.90
12421;DHT22;6275;43.688;1.408;2022-10-16T01:59:31;17.30;99.90
12421;DHT22;6275;43.688;1.408;2022-10-16T02:02:01;17.40;99.90
12421;DHT22;6275;43.688;1.408;2022-10-16T02:04:40;17.50;99.90
12421;DHT22;6275;43.688;1.408;2022-10-16T02:07:07;17.40;99.90
12421;DHT22;6275;43.688;1.408;2022-10-16T02:09:35;17.50;99.90
12421;DHT22;6275;43.688;1.408;2022-10-16T02:12:22;17.50;99.90
12421;DHT22;6275;43.688;1.408;2022-10-16T02:14:51;17.40;99.90
12421;DHT22;6275;43.688;1.408;2022-10-16T02:17:18;17.40;99.90
12421;DHT22;6275;43.688;1.408;2022-10-16T02:19:47;17.30;99.90
12421;DHT22;6275;43.688;1.408;2022-10-16T02:22:28;17.20;99.90
12421;DHT22;6275;43.688;1.408;2022-10-16T02:24:57;17.20;99.90
12421;DHT22;6275;43.688;1.408;2022-10-16T02:27:48;17.20;99.90
12421;DHT22;6275;43.688;1.408;2022-10-16T02:30:37;17.20;99.90
12421;DHT22;6275;43.688;1.408;2022-10-16T02:33:07;17.10;99.90
12421;DHT22;6275;43.688;1.408;2022-10-16T02:35:36;17.10;99.90
12421;DHT22;6275;43.688;1.408;2022-10-16T02:38:04;17.10;99.90
12421;DHT22;6275;43.688;1.408;2022-10-16T02:40:32;17.10;99.90
12421;DHT22;6275;43.688;1.408;2022-10-16T02:42:59;16.90;99.90
12421;DHT22;6275;43.688;1.408;2022-10-16T02:45:26;16.80;99.90
12421;DHT22;6275;43.688;1.408;2022-10-16T02:47:52;16.80;99.90
12421;DHT22;6275;43.688;1.408;2022-10-16T02:50:19;16.80;99.90
12421;DHT22;6275;43.688;1.408;2022-10-16T02:52:46;16.80;99.90
12421;DHT22;6275;43.688;1.408;2022-10-16T02:55:13;16.80;99.90
12421;DHT22;6275;43.688;1.408;2022-10-16T02:57:40;17.00;99.90
12421;DHT22;6275;43.688;1.408;2022-10-16T03:00:13;17.00;99.90
12421;DHT22;6275;43.688;1.408;2022-10-16T03:02:40;17.10;99.90
12421;DHT22;6275;43.688;1.408;2022-10-16T03:05:09;17.00;99.90
12421;DHT22;6275;43.688;1.408;2022-10-16T03:07:36;17.00;99.90
12421;DHT22;6275;43.688;1.408;2022-10-16T03:10:03;17.00;99.90
12421;DHT22;6275;43.688;1.408;2022-10-16T03:12:30;17.00;99.90
12421;DHT22;6275;43.688;1.408;2022-10-16T03:14:57;17.10;99.90
12421;DHT22;6275;43.688;1.408;2022-10-16T03:17:25;17.30;99.90
12421;DHT22;6275;43.688;1.408;2022-10-16T03:19:52;17.30;99.90
12421;DHT22;6275;43.688;1.408;2022-10-16T03:22:19;17.50;99.90
12421;DHT22;6275;43.688;1.408;2022-10-16T03:24:46;17.60;99.90
12421;DHT22;6275;43.688;1.408;2022-10-16T03:27:13;17.80;99.90
12421;DHT22;6275;43.688;1.408;2022-10-16T03:29:40;17.90;99.90
12421;DHT22;6275;43.688;1.408;2022-10-16T03:32:07;17.90;99.90
12421;DHT22;6275;43.688;1.408;2022-10-16T03:34:34;18.10;99.90
12421;DHT22;6275;43.688;1.408;2022-10-16T03:37:01;18.10;99.90
12421;DHT22;6275;43.688;1.408;2022-10-16T03:39:27;18.10;99.90
12421;DHT22;6275;43.688;1.408;2022-10-16T03:41:54;18.20;99.90
12421;DHT22;6275;43.688;1.408;2022-10-16T03:44:21;18.20;99.90
12421;DHT22;6275;43.688;1.408;2022-10-16T03:46:48;18.30;99.90
12421;DHT22;6275;43.688;1.408;2022-10-16T03:49:15;18.30;99.90
12421;DHT22;6275;43.688;1.408;2022-10-16T03:51:42;18.30;99.90
12421;DHT22;6275;43.688;1.408;2022-10-16T03:54:10;18.40;99.90
12421;DHT22;6275;43.688;1.408;2022-10-16T03:56:36;18.40;99.90
12421;DHT22;6275;43.688;1.408;2022-10-16T03:59:03;18.40;99.90
12421;DHT22;6275;43.688;1.408;2022-10-16T04:01:30;18.40;99.90
12421;DHT22;6275;43.688;1.408;2022-10-16T04:03:57;18.30;99.90
12421;DHT22;6275;43.688;1.408;2022-10-16T04:06:24;18.20;99.90
12421;DHT22;6275;43.688;1.408;2022-10-16T04:08:51;18.30;99.90
12421;DHT22;6275;43.688;1.408;2022-10-16T04:11:18;18.30;99.90
12421;DHT22;6275;43.688;1.408;2022-10-16T04:13:45;18.30;99.90
12421;DHT22;6275;43.688;1.408;2022-10-16T04:16:12;18.30;99.90
12421;DHT22;6275;43.688;1.408;2022-10-16T04:18:38;18.30;99.90
12421;DHT22;6275;43.688;1.408;2022-10-16T04:21:06;18.20;99.90
12421;DHT22;6275;43.688;1.408;2022-10-16T04:23:33;18.20;99.90
12421;DHT22;6275;43.688;1.408;2022-10-16T04:26:00;18.30;99.90
12421;DHT22;6275;43.688;1.408;2022-10-16T04:28:27;18.20;99.90
12421;DHT22;6275;43.688;1.408;2022-10-16T04:30:54;18.30;99.90
12421;DHT22;6275;43.688;1.408;2022-10-16T04:33:21;18.30;99.90
12421;DHT22;6275;43.688;1.408;2022-10-16T04:35:48;18.30;99.90
12421;DHT22;6275;43.688;1.408;2022-10-16T04:38:15;18.20;99.90
12421;DHT22;6275;43.688;1.408;2022-10-16T04:40:42;18.20;99.90
12421;DHT22;6275;43.688;1.408;2022-10-16T04:43:09;18.10;99.90
12421;DHT22;6275;43.688;1.408;2022-10-16T04:45:37;18.20;99.90
12421;DHT22;6275;43.688;1.408;2022-10-16T04:48:04;18.20;99.90
12421;DHT22;6275;43.688;1.408;2022-10-16T04:50:31;18.30;99.90
12421;DHT22;6275;43.688;1.408;2022-10-16T04:52:58;18.30;99.90
12421;DHT22;6275;43.688;1.408;2022-10-16T04:55:25;18.30;99.90
12421;DHT22;6275;43.688;1.408;2022-10-16T04:57:51;18.20;99.90
12421;DHT22;6275;43.688;1.408;2022-10-16T05:00:18;18.20;99.90
12421;DHT22;6275;43.688;1.408;2022-10-16T05:02:45;18.10;99.90
12421;DHT22;6275;43.688;1.408;2022-10-16T05:05:12;18.00;99.90
12421;DHT22;6275;43.688;1.408;2022-10-16T05:07:41;18.00;99.90
12421;DHT22;6275;43.688;1.408;2022-10-16T05:10:08;17.90;99.90
12421;DHT22;6275;43.688;1.408;2022-10-16T05:12:35;17.90;99.90
12421;DHT22;6275;43.688;1.408;2022-10-16T05:15:02;17.80;99.90
12421;DHT22;6275;43.688;1.408;2022-10-16T05:17:29;17.60;99.90
12421;DHT22;6275;43.688;1.408;2022-10-16T05:19:56;17.70;99.90
12421;DHT22;6275;43.688;1.408;2022-10-16T05:22:22;17.60;99.90
12421;DHT22;6275;43.688;1.408;2022-10-16T05:24:49;17.70;99.90
12421;DHT22;6275;43.688;1.408;2022-10-16T05:27:16;17.40;99.90
12421;DHT22;6275;43.688;1.408;2022-10-16T05:29:47;17.40;99.90
12421;DHT22;6275;43.688;1.408;2022-10-16T05:32:15;17.30;99.90
12421;DHT22;6275;43.688;1.408;2022-10-16T05:34:42;17.40;99.90
12421;DHT22;6275;43.688;1.408;2022-10-16T05:37:09;17.40;99.90
12421;DHT22;6275;43.688;1.408;2022-10-16T05:39:40;17.30;99.90
12421;DHT22;6275;43.688;1.408;2022-10-16T05:42:07;17.30;99.90
12421;DHT22;6275;43.688;1.408;2022-10-16T05:44:34;17.40;99.90
12421;DHT22;6275;43.688;1.408;2022-10-16T05:47:01;17.50;99.90
12421;DHT22;6275;43.688;1.408;2022-10-16T05:49:28;17.50;99.90
12421;DHT22;6275;43.688;1.408;2022-10-16T05:51:55;17.50;99.90
12421;DHT22;6275;43.688;1.408;2022-10-16T05:54:22;17.50;99.90
12421;DHT22;6275;43.688;1.408;2022-10-16T05:56:48;17.60;99.90
12421;DHT22;6275;43.688;1.408;2022-10-16T05:59:15;17.60;99.90
12421;DHT22;6275;43.688;1.408;2022-10-16T06:01:42;17.50;99.90
12421;DHT22;6275;43.688;1.408;2022-10-16T06:04:09;17.50;99.90
12421;DHT22;6275;43.688;1.408;2022-10-16T06:06:41;17.60;99.90
12421;DHT22;6275;43.688;1.408;2022-10-16T06:09:09;17.50;99.90
12421;DHT22;6275;43.688;1.408;2022-10-16T06:11:36;17.50;99.90
12421;DHT22;6275;43.688;1.408;2022-10-16T06:14:03;17.50;99.90
12421;DHT22;6275;43.688;1.408;2022-10-16T06:16:35;17.60;99.90
12421;DHT22;6275;43.688;1.408;2022-10-16T06:19:03;17.60;99.90
12421;DHT22;6275;43.688;1.408;2022-10-16T06:21:33;17.70;99.90
12421;DHT22;6275;43.688;1.408;2022-10-16T06:24:00;17.70;99.90
12421;DHT22;6275;43.688;1.408;2022-10-16T06:26:28;17.70;99.90
12421;DHT22;6275;43.688;1.408;2022-10-16T06:28:58;17.70;99.90
12421;DHT22;6275;43.688;1.408;2022-10-16T06:31:26;17.60;99.90
12421;DHT22;6275;43.688;1.408;2022-10-16T06:33:55;17.70;99.90
12421;DHT22;6275;43.688;1.408;2022-10-16T06:36:23;17.80;99.90
12421;DHT22;6275;43.688;1.408;2022-10-16T06:38:51;17.80;99.90
12421;DHT22;6275;43.688;1.408;2022-10-16T06:41:20;18.00;99.90
12421;DHT22;6275;43.688;1.408;2022-10-16T06:43:47;18.00;99.90
12421;DHT22;6275;43.688;1.408;2022-10-16T06:46:17;18.00;99.90
12421;DHT22;6275;43.688;1.408;2022-10-16T06:48:44;18.30;99.90
12421;DHT22;6275;43.688;1.408;2022-10-16T06:53:42;18.70;99.90
12421;DHT22;6275;43.688;1.408;2022-10-16T06:56:29;18.90;99.90
12421;DHT22;6275;43.688;1.408;2022-10-16T06:58:58;19.10;99.90
12421;DHT22;6275;43.688;1.408;2022-10-16T07:01:25;19.10;99.90
12421;DHT22;6275;43.688;1.408;2022-10-16T07:03:52;19.30;99.90
12421;DHT22;6275;43.688;1.408;2022-10-16T07:06:22;19.40;99.90
12421;DHT22;6275;43.688;1.408;2022-10-16T07:08:49;19.50;99.90
12421;DHT22;6275;43.688;1.408;2022-10-16T07:11:19;19.60;99.90
12421;DHT22;6275;43.688;1.408;2022-10-16T07:13:47;19.60;99.90
12421;DHT22;6275;43.688;1.408;2022-10-16T07:16:24;19.80;99.90
12421;DHT22;6275;43.688;1.408;2022-10-16T07:18:51;19.90;99.90
12421;DHT22;6275;43.688;1.408;2022-10-16T07:21:25;20.00;99.90
12421;DHT22;6275;43.688;1.408;2022-10-16T07:23:59;20.10;99.90
12421;DHT22;6275;43.688;1.408;2022-10-16T07:26:29;19.70;99.90
12421;DHT22;6275;43.688;1.408;2022-10-16T07:28:57;19.40;99.90
12421;DHT22;6275;43.688;1.408;2022-10-16T07:31:25;19.30;99.90
12421;DHT22;6275;43.688;1.408;2022-10-16T07:33:52;19.40;99.90
12421;DHT22;6275;43.688;1.408;2022-10-16T07:36:20;19.80;99.90
12421;DHT22;6275;43.688;1.408;2022-10-16T07:38:47;20.00;99.90
12421;DHT22;6275;43.688;1.408;2022-10-16T07:41:16;19.90;99.90
12421;DHT22;6275;43.688;1.408;2022-10-16T07:43:48;19.70;99.90
12421;DHT22;6275;43.688;1.408;2022-10-16T07:46:16;19.60;99.90
12421;DHT22;6275;43.688;1.408;2022-10-16T07:48:43;19.50;99.90
12421;DHT22;6275;43.688;1.408;2022-10-16T07:51:16;19.60;99.90
12421;DHT22;6275;43.688;1.408;2022-10-16T07:53:43;19.80;99.90
12421;DHT22;6275;43.688;1.408;2022-10-16T07:56:10;20.00;99.90
12421;DHT22;6275;43.688;1.408;2022-10-16T07:58:38;20.20;99.90
12421;DHT22;6275;43.688;1.408;2022-10-16T08:01:14;20.90;99.90
12421;DHT22;6275;43.688;1.408;2022-10-16T08:03:46;21.00;99.90
12421;DHT22;6275;43.688;1.408;2022-10-16T08:06:13;20.80;99.90
12421;DHT22;6275;43.688;1.408;2022-10-16T08:08:40;20.80;99.90
12421;DHT22;6275;43.688;1.408;2022-10-16T08:11:07;21.10;99.90
12421;DHT22;6275;43.688;1.408;2022-10-16T08:13:34;21.30;99.90
12421;DHT22;6275;43.688;1.408;2022-10-16T08:16:02;20.90;99.90
12421;DHT22;6275;43.688;1.408;2022-10-16T08:18:38;20.90;99.90
12421;DHT22;6275;43.688;1.408;2022-10-16T08:21:06;20.70;99.90
12421;DHT22;6275;43.688;1.408;2022-10-16T08:23:34;20.80;99.90
12421;DHT22;6275;43.688;1.408;2022-10-16T08:26:06;21.00;99.90
12421;DHT22;6275;43.688;1.408;2022-10-16T08:31:09;22.10;99.90
12421;DHT22;6275;43.688;1.408;2022-10-16T08:33:37;21.90;99.90
12421;DHT22;6275;43.688;1.408;2022-10-16T15:26:47;23.30;99.90
12421;DHT22;6275;43.688;1.408;2022-10-16T15:29:15;23.20;99.90
12421;DHT22;6275;43.688;1.408;2022-10-16T15:31:42;23.10;99.90
12421;DHT22;6275;43.688;1.408;2022-10-16T15:34:10;23.00;99.90
12421;DHT22;6275;43.688;1.408;2022-10-16T15:36:38;23.00;99.90
12421;DHT22;6275;43.688;1.408;2022-10-16T16:26:14;22.40;99.90
12421;DHT22;6275;43.688;1.408;2022-10-16T16:28:42;22.30;99.90
12421;DHT22;6275;43.688;1.408;2022-10-16T16:31:10;22.30;99.90
12421;DHT22;6275;43.688;1.408;2022-10-16T16:33:36;22.20;99.90
12421;DHT22;6275;43.688;1.408;2022-10-16T16:36:06;22.20;99.90
12421;DHT22;6275;43.688;1.408;2022-10-16T16:38:38;22.10;99.90
12421;DHT22;6275;43.688;1.408;2022-10-16T16:41:15;22.10;99.90
12421;DHT22;6275;43.688;1.408;2022-10-16T16:43:43;22.10;99.90
12421;DHT22;6275;43.688;1.408;2022-10-16T16:48:38;22.20;99.90
12421;DHT22;6275;43.688;1.408;2022-10-16T16:51:10;22.20;99.90
12421;DHT22;6275;43.688;1.408;2022-10-16T16:53:47;22.20;99.90
12421;DHT22;6275;43.688;1.408;2022-10-16T16:56:15;22.10;99.90
12421;DHT22;6275;43.688;1.408;2022-10-16T16:58:45;22.00;99.90
12421;DHT22;6275;43.688;1.408;2022-10-16T17:01:12;22.00;99.90
12421;DHT22;6275;43.688;1.408;2022-10-16T17:03:47;22.00;99.90
12421;DHT22;6275;43.688;1.408;2022-10-16T17:06:17;21.90;99.90
12421;DHT22;6275;43.688;1.408;2022-10-16T17:08:47;21.80;99.90
12421;DHT22;6275;43.688;1.408;2022-10-16T17:11:17;21.80;99.90
12421;DHT22;6275;43.688;1.408;2022-10-16T17:13:44;21.80;99.90
12421;DHT22;6275;43.688;1.408;2022-10-16T17:16:11;21.70;99.90
12421;DHT22;6275;43.688;1.408;2022-10-16T17:18:39;21.70;99.90
12421;DHT22;6275;43.688;1.408;2022-10-16T17:21:08;21.70;99.90
12421;DHT22;6275;43.688;1.408;2022-10-16T17:23:36;21.60;99.90
12421;DHT22;6275;43.688;1.408;2022-10-16T17:26:12;21.70;99.90
12421;DHT22;6275;43.688;1.408;2022-10-16T17:28:40;21.50;99.90
12421;DHT22;6275;43.688;1.408;2022-10-16T17:31:15;21.50;99.90
12421;DHT22;6275;43.688;1.408;2022-10-16T17:33:43;21.50;99.90
12421;DHT22;6275;43.688;1.408;2022-10-16T17:36:10;21.60;99.90
12421;DHT22;6275;43.688;1.408;2022-10-16T17:38:41;21.40;99.90
12421;DHT22;6275;43.688;1.408;2022-10-16T17:41:12;21.50;99.90
12421;DHT22;6275;43.688;1.408;2022-10-16T17:43:40;21.50;99.90
12421;DHT22;6275;43.688;1.408;2022-10-16T17:46:08;21.40;99.90
12421;DHT22;6275;43.688;1.408;2022-10-16T17:48:39;21.50;99.90
12421;DHT22;6275;43.688;1.408;2022-10-16T17:51:08;21.50;99.90
12421;DHT22;6275;43.688;1.408;2022-10-16T17:53:35;21.40;99.90
12421;DHT22;6275;43.688;1.408;2022-10-16T17:56:07;21.30;99.90
12421;DHT22;6275;43.688;1.408;2022-10-16T17:58:35;21.40;99.90
12421;DHT22;6275;43.688;1.408;2022-10-16T18:01:12;21.40;99.90
12421;DHT22;6275;43.688;1.408;2022-10-16T18:03:39;21.40;99.90
12421;DHT22;6275;43.688;1.408;2022-10-16T18:06:06;21.40;99.90
12421;DHT22;6275;43.688;1.408;2022-10-16T18:08:33;21.50;99.90
12421;DHT22;6275;43.688;1.408;2022-10-16T18:11:03;21.50;99.90
12421;DHT22;6275;43.688;1.408;2022-10-16T18:13:31;21.30;99.90
12421;DHT22;6275;43.688;1.408;2022-10-16T18:16:01;21.40;99.90
12421;DHT22;6275;43.688;1.408;2022-10-16T18:18:28;21.50;99.90
12421;DHT22;6275;43.688;1.408;2022-10-16T18:20:57;21.40;99.90
12421;DHT22;6275;43.688;1.408;2022-10-16T18:23:24;21.30;99.90
12421;DHT22;6275;43.688;1.408;2022-10-16T18:25:51;21.30;99.90
12421;DHT22;6275;43.688;1.408;2022-10-16T18:28:19;21.20;99.90
12421;DHT22;6275;43.688;1.408;2022-10-16T18:30:57;21.20;99.90
12421;DHT22;6275;43.688;1.408;2022-10-16T18:33:25;21.10;99.90
12421;DHT22;6275;43.688;1.408;2022-10-16T18:35:52;21.10;99.90
12421;DHT22;6275;43.688;1.408;2022-10-16T18:38:20;21.20;99.90
12421;DHT22;6275;43.688;1.408;2022-10-16T18:40:47;21.20;99.90
12421;DHT22;6275;43.688;1.408;2022-10-16T18:43:14;21.20;99.90
12421;DHT22;6275;43.688;1.408;2022-10-16T18:45:41;21.10;99.90
12421;DHT22;6275;43.688;1.408;2022-10-16T18:48:08;21.20;99.90
12421;DHT22;6275;43.688;1.408;2022-10-16T18:50:35;21.20;99.90
12421;DHT22;6275;43.688;1.408;2022-10-16T18:53:02;21.20;99.90
12421;DHT22;6275;43.688;1.408;2022-10-16T18:55:28;21.10;99.90
12421;DHT22;6275;43.688;1.408;2022-10-16T18:57:56;21.20;99.90
12421;DHT22;6275;43.688;1.408;2022-10-16T19:00:23;21.20;99.90
12421;DHT22;6275;43.688;1.408;2022-10-16T19:02:50;21.00;99.90
12421;DHT22;6275;43.688;1.408;2022-10-16T19:10:14;21.10;99.90
12421;DHT22;6275;43.688;1.408;2022-10-16T19:12:41;20.90;99.90
12421;DHT22;6275;43.688;1.408;2022-10-16T19:22:32;20.80;99.90
12421;DHT22;6275;43.688;1.408;2022-10-16T19:25:22;20.70;99.90
12421;DHT22;6275;43.688;1.408;2022-10-16T19:27:49;20.70;99.90
12421;DHT22;6275;43.688;1.408;2022-10-16T19:30:18;20.60;99.90
12421;DHT22;6275;43.688;1.408;2022-10-16T19:32:45;20.60;99.90
12421;DHT22;6275;43.688;1.408;2022-10-16T19:35:15;20.50;99.90
12421;DHT22;6275;43.688;1.408;2022-10-16T19:37:42;20.60;99.90
12421;DHT22;6275;43.688;1.408;2022-10-16T19:40:10;20.50;99.90
12421;DHT22;6275;43.688;1.408;2022-10-16T19:42:37;20.50;99.90
12421;DHT22;6275;43.688;1.408;2022-10-16T19:45:10;20.50;99.90
12421;DHT22;6275;43.688;1.408;2022-10-16T19:47:37;20.50;99.90
12421;DHT22;6275;43.688;1.408;2022-10-16T19:50:05;20.50;99.90
12421;DHT22;6275;43.688;1.408;2022-10-16T19:52:32;20.20;99.90
12421;DHT22;6275;43.688;1.408;2022-10-16T19:54:59;20.20;99.90
12421;DHT22;6275;43.688;1.408;2022-10-16T19:57:26;20.20;99.90
12421;DHT22;6275;43.688;1.408;2022-10-16T19:59:53;20.10;99.90
12421;DHT22;6275;43.688;1.408;2022-10-16T20:02:20;20.10;99.90
12421;DHT22;6275;43.688;1.408;2022-10-16T20:04:47;20.00;99.90
12421;DHT22;6275;43.688;1.408;2022-10-16T20:07:14;19.90;99.90
12421;DHT22;6275;43.688;1.408;2022-10-16T20:09:42;19.90;99.90
12421;DHT22;6275;43.688;1.408;2022-10-16T20:12:09;19.90;99.90
12421;DHT22;6275;43.688;1.408;2022-10-16T20:14:35;19.90;99.90
12421;DHT22;6275;43.688;1.408;2022-10-16T20:17:03;19.80;99.90
12421;DHT22;6275;43.688;1.408;2022-10-16T20:19:30;19.90;99.90
12421;DHT22;6275;43.688;1.408;2022-10-16T20:22:00;19.90;99.90
12421;DHT22;6275;43.688;1.408;2022-10-16T20:24:27;19.80;99.90
12421;DHT22;6275;43.688;1.408;2022-10-16T20:26:53;19.80;99.90
12421;DHT22;6275;43.688;1.408;2022-10-16T20:29:20;19.60;99.90
12421;DHT22;6275;43.688;1.408;2022-10-16T20:31:47;19.50;99.90
12421;DHT22;6275;43.688;1.408;2022-10-16T20:34:14;19.50;99.90
12421;DHT22;6275;43.688;1.408;2022-10-16T20:36:41;19.60;99.90
12421;DHT22;6275;43.688;1.408;2022-10-16T20:39:11;19.60;99.90
12421;DHT22;6275;43.688;1.408;2022-10-16T20:41:39;19.60;99.90
12421;DHT22;6275;43.688;1.408;2022-10-16T20:44:06;19.50;99.90
12421;DHT22;6275;43.688;1.408;2022-10-16T20:46:33;19.50;99.90
12421;DHT22;6275;43.688;1.408;2022-10-16T20:49:00;19.50;99.90
12421;DHT22;6275;43.688;1.408;2022-10-16T20:51:42;19.60;99.90
12421;DHT22;6275;43.688;1.408;2022-10-16T20:54:10;19.50;99.90
12421;DHT22;6275;43.688;1.408;2022-10-16T20:56:37;19.40;99.90
12421;DHT22;6275;43.688;1.408;2022-10-16T20:59:05;19.30;99.90
12421;DHT22;6275;43.688;1.408;2022-10-16T21:01:32;19.50;99.90
12421;DHT22;6275;43.688;1.408;2022-10-16T21:04:04;19.50;99.90
12421;DHT22;6275;43.688;1.408;2022-10-16T21:06:33;19.50;99.90
12421;DHT22;6275;43.688;1.408;2022-10-16T21:09:01;19.50;99.90
12421;DHT22;6275;43.688;1.408;2022-10-16T21:11:31;19.50;99.90
12421;DHT22;6275;43.688;1.408;2022-10-16T21:14:05;19.50;99.90
12421;DHT22;6275;43.688;1.408;2022-10-16T21:16:33;19.50;99.90
12421;DHT22;6275;43.688;1.408;2022-10-16T21:19:00;19.40;99.90
12421;DHT22;6275;43.688;1.408;2022-10-16T21:21:29;19.40;99.90
12421;DHT22;6275;43.688;1.408;2022-10-16T21:23:57;19.30;99.90
12421;DHT22;6275;43.688;1.408;2022-10-16T21:26:25;19.30;99.90
12421;DHT22;6275;43.688;1.408;2022-10-16T21:28:59;19.50;99.90
12421;DHT22;6275;43.688;1.408;2022-10-16T21:31:27;19.50;99.90
12421;DHT22;6275;43.688;1.408;2022-10-16T21:33:54;19.40;99.90
12421;DHT22;6275;43.688;1.408;2022-10-16T21:36:24;19.50;99.90
12421;DHT22;6275;43.688;1.408;2022-10-16T21:38:51;19.40;99.90
12421;DHT22;6275;43.688;1.408;2022-10-16T21:41:20;19.50;99.90
12421;DHT22;6275;43.688;1.408;2022-10-16T21:43:48;19.50;99.90
12421;DHT22;6275;43.688;1.408;2022-10-16T21:46:18;19.60;99.90
12421;DHT22;6275;43.688;1.408;2022-10-16T21:48:45;19.30;99.90
12421;DHT22;6275;43.688;1.408;2022-10-16T21:51:13;19.50;99.90
12421;DHT22;6275;43.688;1.408;2022-10-16T21:53:40;19.40;99.90
12421;DHT22;6275;43.688;1.408;2022-10-16T21:56:15;19.50;99.90
12421;DHT22;6275;43.688;1.408;2022-10-16T21:58:43;19.50;99.90
12421;DHT22;6275;43.688;1.408;2022-10-16T22:01:15;19.50;99.90
12421;DHT22;6275;43.688;1.408;2022-10-16T22:03:43;19.60;99.90
12421;DHT22;6275;43.688;1.408;2022-10-16T22:06:11;19.60;99.90
12421;DHT22;6275;43.688;1.408;2022-10-16T22:08:39;19.60;99.90
12421;DHT22;6275;43.688;1.408;2022-10-16T22:13:41;19.60;99.90
12421;DHT22;6275;43.688;1.408;2022-10-16T22:16:08;19.50;99.90
12421;DHT22;6275;43.688;1.408;2022-10-16T22:18:36;19.40;99.90
12421;DHT22;6275;43.688;1.408;2022-10-16T22:21:08;19.40;99.90
12421;DHT22;6275;43.688;1.408;2022-10-16T22:23:35;19.20;99.90
12421;DHT22;6275;43.688;1.408;2022-10-16T22:26:05;19.30;99.90
12421;DHT22;6275;43.688;1.408;2022-10-16T22:28:33;19.20;99.90
12421;DHT22;6275;43.688;1.408;2022-10-16T22:31:02;19.20;99.90
12421;DHT22;6275;43.688;1.408;2022-10-16T22:33:29;19.10;99.90
12421;DHT22;6275;43.688;1.408;2022-10-16T22:35:59;19.00;99.90
12421;DHT22;6275;43.688;1.408;2022-10-16T22:38:28;19.00;99.90
12421;DHT22;6275;43.688;1.408;2022-10-16T22:41:04;19.10;99.90
12421;DHT22;6275;43.688;1.408;2022-10-16T22:43:34;19.00;99.90
12421;DHT22;6275;43.688;1.408;2022-10-16T22:46:03;19.10;99.90
12421;DHT22;6275;43.688;1.408;2022-10-16T22:48:30;19.00;99.90
12421;DHT22;6275;43.688;1.408;2022-10-16T22:50:57;19.00;99.90
12421;DHT22;6275;43.688;1.408;2022-10-16T22:53:24;18.90;99.90
12421;DHT22;6275;43.688;1.408;2022-10-16T22:55:51;18.90;99.90
12421;DHT22;6275;43.688;1.408;2022-10-16T22:58:18;18.90;99.90
12421;DHT22;6275;43.688;1.408;2022-10-16T23:00:45;18.80;99.90
12421;DHT22;6275;43.688;1.408;2022-10-16T23:03:12;19.00;99.90
12421;DHT22;6275;43.688;1.408;2022-10-16T23:05:40;19.00;99.90
12421;DHT22;6275;43.688;1.408;2022-10-16T23:08:08;19.10;99.90
12421;DHT22;6275;43.688;1.408;2022-10-16T23:10:40;19.00;99.90
12421;DHT22;6275;43.688;1.408;2022-10-16T23:13:08;19.10;99.90
12421;DHT22;6275;43.688;1.408;2022-10-16T23:15:39;19.10;99.90
12421;DHT22;6275;43.688;1.408;2022-10-16T23:18:07;19.20;99.90
12421;DHT22;6275;43.688;1.408;2022-10-16T23:20:34;19.10;99.90
12421;DHT22;6275;43.688;1.408;2022-10-16T23:23:04;19.10;99.90
12421;DHT22;6275;43.688;1.408;2022-10-16T23:25:30;19.00;99.90
12421;DHT22;6275;43.688;1.408;2022-10-16T23:27:57;19.10;99.90
12421;DHT22;6275;43.688;1.408;2022-10-16T23:30:24;19.10;99.90
12421;DHT22;6275;43.688;1.408;2022-10-16T23:32:51;19.00;99.90
12421;DHT22;6275;43.688;1.408;2022-10-16T23:35:18;19.00;99.90
12421;DHT22;6275;43.688;1.408;2022-10-16T23:37:45;19.10;99.90
12421;DHT22;6275;43.688;1.408;2022-10-16T23:40:12;19.00;99.90
12421;DHT22;6275;43.688;1.408;2022-10-16T23:42:39;19.00;99.90
12421;DHT22;6275;43.688;1.408;2022-10-16T23:45:06;19.00;99.90
12421;DHT22;6275;43.688;1.408;2022-10-16T23:47:33;19.10;99.90
12421;DHT22;6275;43.688;1.408;2022-10-16T23:50:00;19.10;99.90
12421;DHT22;6275;43.688;1.408;2022-10-16T23:52:27;19.10;99.90
12421;DHT22;6275;43.688;1.408;2022-10-16T23:54:53;19.10;99.90
12421;DHT22;6275;43.688;1.408;2022-10-16T23:57:20;19.10;99.90
12421;DHT22;6275;43.688;1.408;2022-10-16T23:59:47;19.10;99.90
